sensor_id;sensor_type;location;lat;lon;timestamp;P1;durP1;ratioP1;P2;durP2;ratioP2
5876;SDS011;2964;42.144;24.730;2023-12-07T00:01:54;83.77;;;33.20;;
5876;SDS011;2964;42.144;24.730;2023-12-07T00:04:20;81.53;;;33.77;;
5876;SDS011;2964;42.144;24.730;2023-12-07T00:06:47;80.77;;;33.10;;
5876;SDS011;2964;42.144;24.730;2023-12-07T00:09:15;86.27;;;33.53;;
5876;SDS011;2964;42.144;24.730;2023-12-07T00:11:42;83.20;;;34.33;;
5876;SDS011;2964;42.144;24.730;2023-12-07T00:14:08;76.27;;;33.47;;
5876;SDS011;2964;42.144;24.730;2023-12-07T00:16:35;79.00;;;33.77;;
5876;SDS011;2964;42.144;24.730;2023-12-07T00:19:03;79.37;;;32.93;;
5876;SDS011;2964;42.144;24.730;2023-12-07T00:21:29;67.83;;;31.67;;
5876;SDS011;2964;42.144;24.730;2023-12-07T00:23:56;66.23;;;31.63;;
5876;SDS011;2964;42.144;24.730;2023-12-07T00:26:23;69.77;;;31.07;;
5876;SDS011;2964;42.144;24.730;2023-12-07T00:28:50;65.93;;;30.53;;
5876;SDS011;2964;42.144;24.730;2023-12-07T00:31:16;65.77;;;31.50;;
5876;SDS011;2964;42.144;24.730;2023-12-07T00:33:45;61.80;;;31.30;;
5876;SDS011;2964;42.144;24.730;2023-12-07T00:36:12;66.80;;;31.80;;
5876;SDS011;2964;42.144;24.730;2023-12-07T00:38:38;74.50;;;32.33;;
5876;SDS011;2964;42.144;24.730;2023-12-07T00:41:06;70.20;;;30.50;;
5876;SDS011;2964;42.144;24.730;2023-12-07T00:43:34;67.67;;;31.67;;
5876;SDS011;2964;42.144;24.730;2023-12-07T00:46:01;70.93;;;30.90;;
5876;SDS011;2964;42.144;24.730;2023-12-07T00:48:27;69.07;;;31.13;;
5876;SDS011;2964;42.144;24.730;2023-12-07T00:50:54;70.83;;;30.63;;
5876;SDS011;2964;42.144;24.730;2023-12-07T00:53:21;69.93;;;31.13;;
5876;SDS011;2964;42.144;24.730;2023-12-07T00:55:48;65.80;;;31.93;;
5876;SDS011;2964;42.144;24.730;2023-12-07T00:58:14;57.43;;;29.77;;
5876;SDS011;2964;42.144;24.730;2023-12-07T01:00:42;56.83;;;28.00;;
5876;SDS011;2964;42.144;24.730;2023-12-07T01:03:09;46.47;;;26.53;;
5876;SDS011;2964;42.144;24.730;2023-12-07T01:05:36;52.73;;;27.33;;
5876;SDS011;2964;42.144;24.730;2023-12-07T01:08:02;59.80;;;28.87;;
5876;SDS011;2964;42.144;24.730;2023-12-07T01:10:30;52.77;;;28.70;;
5876;SDS011;2964;42.144;24.730;2023-12-07T01:12:57;55.10;;;27.87;;
5876;SDS011;2964;42.144;24.730;2023-12-07T01:15:23;55.60;;;28.13;;
5876;SDS011;2964;42.144;24.730;2023-12-07T01:17:52;56.97;;;28.03;;
5876;SDS011;2964;42.144;24.730;2023-12-07T01:20:19;62.23;;;29.23;;
5876;SDS011;2964;42.144;24.730;2023-12-07T01:22:45;51.63;;;27.27;;
5876;SDS011;2964;42.144;24.730;2023-12-07T01:25:12;49.33;;;26.47;;
5876;SDS011;2964;42.144;24.730;2023-12-07T01:27:45;50.33;;;26.87;;
5876;SDS011;2964;42.144;24.730;2023-12-07T01:30:11;68.17;;;29.63;;
5876;SDS011;2964;42.144;24.730;2023-12-07T01:32:38;54.00;;;26.80;;
5876;SDS011;2964;42.144;24.730;2023-12-07T01:35:07;56.53;;;26.67;;
5876;SDS011;2964;42.144;24.730;2023-12-07T01:37:34;57.57;;;28.30;;
5876;SDS011;2964;42.144;24.730;2023-12-07T01:40:01;58.40;;;27.57;;
5876;SDS011;2964;42.144;24.730;2023-12-07T01:42:30;48.57;;;28.13;;
5876;SDS011;2964;42.144;24.730;2023-12-07T01:44:57;52.33;;;27.47;;
5876;SDS011;2964;42.144;24.730;2023-12-07T01:47:24;52.23;;;25.60;;
5876;SDS011;2964;42.144;24.730;2023-12-07T01:49:51;49.87;;;26.27;;
5876;SDS011;2964;42.144;24.730;2023-12-07T01:52:19;45.37;;;25.43;;
5876;SDS011;2964;42.144;24.730;2023-12-07T01:54:48;46.93;;;26.30;;
5876;SDS011;2964;42.144;24.730;2023-12-07T01:57:14;44.60;;;24.90;;
5876;SDS011;2964;42.144;24.730;2023-12-07T01:59:41;47.37;;;24.67;;
5876;SDS011;2964;42.144;24.730;2023-12-07T02:02:08;49.50;;;26.30;;
5876;SDS011;2964;42.144;24.730;2023-12-07T02:04:35;43.77;;;25.87;;
5876;SDS011;2964;42.144;24.730;2023-12-07T02:07:02;51.67;;;26.40;;
5876;SDS011;2964;42.144;24.730;2023-12-07T02:09:32;44.47;;;24.00;;
5876;SDS011;2964;42.144;24.730;2023-12-07T02:11:58;47.23;;;25.53;;
5876;SDS011;2964;42.144;24.730;2023-12-07T02:14:25;44.10;;;24.27;;
5876;SDS011;2964;42.144;24.730;2023-12-07T02:16:54;47.47;;;26.00;;
5876;SDS011;2964;42.144;24.730;2023-12-07T02:19:36;41.00;;;22.53;;
5876;SDS011;2964;42.144;24.730;2023-12-07T02:22:25;39.00;;;22.53;;
5876;SDS011;2964;42.144;24.730;2023-12-07T02:25:05;45.40;;;23.07;;
5876;SDS011;2964;42.144;24.730;2023-12-07T02:27:35;37.13;;;22.77;;
5876;SDS011;2964;42.144;24.730;2023-12-07T02:30:03;41.37;;;23.63;;
5876;SDS011;2964;42.144;24.730;2023-12-07T02:32:30;42.83;;;23.10;;
5876;SDS011;2964;42.144;24.730;2023-12-07T02:34:57;36.80;;;22.77;;
5876;SDS011;2964;42.144;24.730;2023-12-07T02:37:25;33.50;;;21.13;;
5876;SDS011;2964;42.144;24.730;2023-12-07T02:39:55;35.30;;;20.73;;
5876;SDS011;2964;42.144;24.730;2023-12-07T02:42:23;36.10;;;23.20;;
5876;SDS011;2964;42.144;24.730;2023-12-07T02:44:53;36.60;;;21.03;;
5876;SDS011;2964;42.144;24.730;2023-12-07T02:47:20;36.50;;;23.23;;
5876;SDS011;2964;42.144;24.730;2023-12-07T02:49:47;46.73;;;24.37;;
5876;SDS011;2964;42.144;24.730;2023-12-07T02:52:14;47.57;;;25.30;;
5876;SDS011;2964;42.144;24.730;2023-12-07T02:54:41;45.13;;;24.73;;
5876;SDS011;2964;42.144;24.730;2023-12-07T02:57:07;47.80;;;26.43;;
5876;SDS011;2964;42.144;24.730;2023-12-07T02:59:34;46.93;;;26.03;;
5876;SDS011;2964;42.144;24.730;2023-12-07T03:02:03;52.63;;;25.53;;
5876;SDS011;2964;42.144;24.730;2023-12-07T03:04:30;40.03;;;24.40;;
5876;SDS011;2964;42.144;24.730;2023-12-07T03:06:56;47.33;;;24.37;;
5876;SDS011;2964;42.144;24.730;2023-12-07T03:09:24;40.07;;;22.40;;
5876;SDS011;2964;42.144;24.730;2023-12-07T03:11:51;44.47;;;24.63;;
5876;SDS011;2964;42.144;24.730;2023-12-07T03:14:17;41.27;;;24.87;;
5876;SDS011;2964;42.144;24.730;2023-12-07T03:16:45;53.30;;;26.53;;
5876;SDS011;2964;42.144;24.730;2023-12-07T03:19:13;48.30;;;25.83;;
5876;SDS011;2964;42.144;24.730;2023-12-07T03:21:40;48.27;;;24.37;;
5876;SDS011;2964;42.144;24.730;2023-12-07T03:24:08;46.17;;;24.10;;
5876;SDS011;2964;42.144;24.730;2023-12-07T03:26:35;47.77;;;25.80;;
5876;SDS011;2964;42.144;24.730;2023-12-07T03:29:02;51.03;;;27.70;;
5876;SDS011;2964;42.144;24.730;2023-12-07T03:31:29;55.00;;;28.33;;
5876;SDS011;2964;42.144;24.730;2023-12-07T03:33:56;54.83;;;29.20;;
5876;SDS011;2964;42.144;24.730;2023-12-07T03:36:25;50.83;;;28.27;;
5876;SDS011;2964;42.144;24.730;2023-12-07T03:38:52;50.67;;;28.07;;
5876;SDS011;2964;42.144;24.730;2023-12-07T03:41:19;54.83;;;30.40;;
5876;SDS011;2964;42.144;24.730;2023-12-07T03:43:45;66.43;;;31.80;;
5876;SDS011;2964;42.144;24.730;2023-12-07T03:46:12;64.40;;;31.30;;
5876;SDS011;2964;42.144;24.730;2023-12-07T03:48:39;56.47;;;30.83;;
5876;SDS011;2964;42.144;24.730;2023-12-07T03:51:05;66.43;;;32.37;;
5876;SDS011;2964;42.144;24.730;2023-12-07T03:53:34;61.20;;;30.77;;
5876;SDS011;2964;42.144;24.730;2023-12-07T03:56:00;72.40;;;32.30;;
5876;SDS011;2964;42.144;24.730;2023-12-07T03:58:27;59.63;;;30.50;;
5876;SDS011;2964;42.144;24.730;2023-12-07T04:00:54;60.50;;;31.83;;
5876;SDS011;2964;42.144;24.730;2023-12-07T04:03:20;69.67;;;33.83;;
5876;SDS011;2964;42.144;24.730;2023-12-07T04:05:47;63.57;;;32.60;;
5876;SDS011;2964;42.144;24.730;2023-12-07T04:08:14;63.00;;;31.97;;
5876;SDS011;2964;42.144;24.730;2023-12-07T04:10:42;61.50;;;33.50;;
5876;SDS011;2964;42.144;24.730;2023-12-07T04:13:09;71.67;;;33.37;;
5876;SDS011;2964;42.144;24.730;2023-12-07T04:15:35;69.23;;;32.50;;
5876;SDS011;2964;42.144;24.730;2023-12-07T04:18:02;66.03;;;34.00;;
5876;SDS011;2964;42.144;24.730;2023-12-07T04:20:29;66.63;;;31.40;;
5876;SDS011;2964;42.144;24.730;2023-12-07T04:22:55;65.27;;;31.53;;
5876;SDS011;2964;42.144;24.730;2023-12-07T04:25:22;65.57;;;32.67;;
5876;SDS011;2964;42.144;24.730;2023-12-07T04:27:50;65.40;;;31.57;;
5876;SDS011;2964;42.144;24.730;2023-12-07T04:30:17;61.20;;;29.37;;
5876;SDS011;2964;42.144;24.730;2023-12-07T04:32:44;58.53;;;28.90;;
5876;SDS011;2964;42.144;24.730;2023-12-07T04:35:10;59.97;;;29.70;;
5876;SDS011;2964;42.144;24.730;2023-12-07T04:37:37;56.70;;;29.53;;
5876;SDS011;2964;42.144;24.730;2023-12-07T04:40:04;61.07;;;29.67;;
5876;SDS011;2964;42.144;24.730;2023-12-07T04:42:32;56.50;;;29.17;;
5876;SDS011;2964;42.144;24.730;2023-12-07T04:45:00;53.00;;;26.93;;
5876;SDS011;2964;42.144;24.730;2023-12-07T04:47:27;55.77;;;29.73;;
5876;SDS011;2964;42.144;24.730;2023-12-07T04:49:53;52.80;;;28.47;;
5876;SDS011;2964;42.144;24.730;2023-12-07T04:52:20;55.33;;;28.33;;
5876;SDS011;2964;42.144;24.730;2023-12-07T04:54:47;52.97;;;30.03;;
5876;SDS011;2964;42.144;24.730;2023-12-07T04:57:14;56.37;;;30.33;;
5876;SDS011;2964;42.144;24.730;2023-12-07T04:59:41;48.30;;;27.93;;
5876;SDS011;2964;42.144;24.730;2023-12-07T05:02:13;65.37;;;32.77;;
5876;SDS011;2964;42.144;24.730;2023-12-07T05:04:39;60.27;;;31.80;;
5876;SDS011;2964;42.144;24.730;2023-12-07T05:07:06;54.50;;;30.10;;
5876;SDS011;2964;42.144;24.730;2023-12-07T05:09:33;56.43;;;30.70;;
5876;SDS011;2964;42.144;24.730;2023-12-07T05:12:00;59.50;;;30.97;;
5876;SDS011;2964;42.144;24.730;2023-12-07T05:14:27;59.43;;;32.47;;
5876;SDS011;2964;42.144;24.730;2023-12-07T05:16:53;59.57;;;31.03;;
5876;SDS011;2964;42.144;24.730;2023-12-07T05:19:22;60.37;;;31.03;;
5876;SDS011;2964;42.144;24.730;2023-12-07T05:21:49;60.83;;;31.40;;
5876;SDS011;2964;42.144;24.730;2023-12-07T05:24:16;63.97;;;32.50;;
5876;SDS011;2964;42.144;24.730;2023-12-07T05:26:43;60.13;;;31.90;;
5876;SDS011;2964;42.144;24.730;2023-12-07T05:29:11;60.40;;;31.13;;
5876;SDS011;2964;42.144;24.730;2023-12-07T05:31:38;54.77;;;31.47;;
5876;SDS011;2964;42.144;24.730;2023-12-07T05:34:05;56.60;;;30.50;;
5876;SDS011;2964;42.144;24.730;2023-12-07T05:36:33;60.93;;;32.57;;
5876;SDS011;2964;42.144;24.730;2023-12-07T05:38:59;58.47;;;32.77;;
5876;SDS011;2964;42.144;24.730;2023-12-07T05:41:26;67.07;;;35.73;;
5876;SDS011;2964;42.144;24.730;2023-12-07T05:43:53;67.60;;;38.03;;
5876;SDS011;2964;42.144;24.730;2023-12-07T05:46:20;72.07;;;39.97;;
5876;SDS011;2964;42.144;24.730;2023-12-07T05:48:48;91.83;;;45.77;;
5876;SDS011;2964;42.144;24.730;2023-12-07T05:51:15;88.03;;;45.43;;
5876;SDS011;2964;42.144;24.730;2023-12-07T05:53:44;89.40;;;47.70;;
5876;SDS011;2964;42.144;24.730;2023-12-07T05:56:10;90.27;;;48.33;;
5876;SDS011;2964;42.144;24.730;2023-12-07T05:58:37;92.17;;;48.50;;
5876;SDS011;2964;42.144;24.730;2023-12-07T06:01:04;134.60;;;63.50;;
5876;SDS011;2964;42.144;24.730;2023-12-07T06:03:32;134.43;;;63.47;;
5876;SDS011;2964;42.144;24.730;2023-12-07T06:06:00;134.10;;;65.83;;
5876;SDS011;2964;42.144;24.730;2023-12-07T06:08:27;123.77;;;63.03;;
5876;SDS011;2964;42.144;24.730;2023-12-07T06:10:55;115.70;;;61.70;;
5876;SDS011;2964;42.144;24.730;2023-12-07T06:13:22;127.90;;;64.57;;
5876;SDS011;2964;42.144;24.730;2023-12-07T06:15:49;117.20;;;60.97;;
5876;SDS011;2964;42.144;24.730;2023-12-07T06:18:16;129.50;;;63.53;;
5876;SDS011;2964;42.144;24.730;2023-12-07T06:20:42;135.53;;;63.07;;
5876;SDS011;2964;42.144;24.730;2023-12-07T06:23:09;124.30;;;65.33;;
5876;SDS011;2964;42.144;24.730;2023-12-07T06:25:37;123.10;;;60.17;;
5876;SDS011;2964;42.144;24.730;2023-12-07T06:28:06;116.87;;;59.33;;
5876;SDS011;2964;42.144;24.730;2023-12-07T06:30:32;112.10;;;60.73;;
5876;SDS011;2964;42.144;24.730;2023-12-07T06:32:59;110.63;;;56.47;;
5876;SDS011;2964;42.144;24.730;2023-12-07T06:35:26;116.57;;;56.63;;
5876;SDS011;2964;42.144;24.730;2023-12-07T06:37:53;101.77;;;54.10;;
5876;SDS011;2964;42.144;24.730;2023-12-07T06:40:20;105.07;;;53.17;;
5876;SDS011;2964;42.144;24.730;2023-12-07T06:42:46;100.57;;;54.10;;
5876;SDS011;2964;42.144;24.730;2023-12-07T06:45:15;116.13;;;52.37;;
5876;SDS011;2964;42.144;24.730;2023-12-07T06:47:42;100.20;;;52.27;;
5876;SDS011;2964;42.144;24.730;2023-12-07T06:50:09;90.57;;;46.87;;
5876;SDS011;2964;42.144;24.730;2023-12-07T06:52:36;86.77;;;45.33;;
5876;SDS011;2964;42.144;24.730;2023-12-07T06:55:03;81.60;;;42.03;;
5876;SDS011;2964;42.144;24.730;2023-12-07T06:57:30;76.97;;;42.17;;
5876;SDS011;2964;42.144;24.730;2023-12-07T06:59:58;67.93;;;38.47;;
5876;SDS011;2964;42.144;24.730;2023-12-07T07:02:27;71.77;;;40.00;;
5876;SDS011;2964;42.144;24.730;2023-12-07T07:04:54;69.63;;;38.67;;
5876;SDS011;2964;42.144;24.730;2023-12-07T07:07:21;66.90;;;38.83;;
5876;SDS011;2964;42.144;24.730;2023-12-07T07:09:47;61.83;;;38.27;;
5876;SDS011;2964;42.144;24.730;2023-12-07T07:12:14;63.93;;;37.80;;
5876;SDS011;2964;42.144;24.730;2023-12-07T07:14:41;66.33;;;38.37;;
5876;SDS011;2964;42.144;24.730;2023-12-07T07:17:08;74.03;;;39.43;;
5876;SDS011;2964;42.144;24.730;2023-12-07T07:19:36;65.30;;;37.60;;
5876;SDS011;2964;42.144;24.730;2023-12-07T07:22:02;55.63;;;33.27;;
5876;SDS011;2964;42.144;24.730;2023-12-07T07:24:29;55.30;;;32.97;;
5876;SDS011;2964;42.144;24.730;2023-12-07T07:26:56;54.97;;;32.97;;
5876;SDS011;2964;42.144;24.730;2023-12-07T07:29:23;57.13;;;33.13;;
5876;SDS011;2964;42.144;24.730;2023-12-07T07:31:50;59.77;;;33.63;;
5876;SDS011;2964;42.144;24.730;2023-12-07T07:34:16;71.13;;;37.10;;
5876;SDS011;2964;42.144;24.730;2023-12-07T07:36:44;60.33;;;36.43;;
5876;SDS011;2964;42.144;24.730;2023-12-07T07:39:11;68.87;;;36.43;;
5876;SDS011;2964;42.144;24.730;2023-12-07T07:41:39;66.13;;;36.57;;
5876;SDS011;2964;42.144;24.730;2023-12-07T07:44:06;61.43;;;36.40;;
5876;SDS011;2964;42.144;24.730;2023-12-07T07:46:32;54.17;;;33.83;;
5876;SDS011;2964;42.144;24.730;2023-12-07T07:49:00;61.60;;;34.33;;
5876;SDS011;2964;42.144;24.730;2023-12-07T07:51:29;64.70;;;37.07;;
5876;SDS011;2964;42.144;24.730;2023-12-07T07:53:58;58.30;;;33.87;;
5876;SDS011;2964;42.144;24.730;2023-12-07T07:56:25;53.90;;;32.43;;
5876;SDS011;2964;42.144;24.730;2023-12-07T07:58:52;41.00;;;27.40;;
5876;SDS011;2964;42.144;24.730;2023-12-07T08:01:18;43.97;;;28.47;;
5876;SDS011;2964;42.144;24.730;2023-12-07T08:03:45;42.70;;;26.47;;
5876;SDS011;2964;42.144;24.730;2023-12-07T08:06:12;41.30;;;27.10;;
5876;SDS011;2964;42.144;24.730;2023-12-07T08:08:38;42.77;;;26.87;;
5876;SDS011;2964;42.144;24.730;2023-12-07T08:11:06;35.83;;;25.77;;
5876;SDS011;2964;42.144;24.730;2023-12-07T08:13:33;43.27;;;27.57;;
5876;SDS011;2964;42.144;24.730;2023-12-07T08:16:00;42.23;;;27.63;;
5876;SDS011;2964;42.144;24.730;2023-12-07T08:18:27;40.50;;;28.10;;
5876;SDS011;2964;42.144;24.730;2023-12-07T08:20:53;42.93;;;28.53;;
5876;SDS011;2964;42.144;24.730;2023-12-07T08:23:20;43.67;;;27.17;;
5876;SDS011;2964;42.144;24.730;2023-12-07T08:25:47;38.27;;;27.40;;
5876;SDS011;2964;42.144;24.730;2023-12-07T08:28:15;45.23;;;28.67;;
5876;SDS011;2964;42.144;24.730;2023-12-07T08:30:43;42.80;;;28.50;;
5876;SDS011;2964;42.144;24.730;2023-12-07T08:33:09;44.20;;;30.10;;
5876;SDS011;2964;42.144;24.730;2023-12-07T08:35:36;41.47;;;31.17;;
5876;SDS011;2964;42.144;24.730;2023-12-07T08:38:03;35.67;;;26.63;;
5876;SDS011;2964;42.144;24.730;2023-12-07T08:40:30;37.63;;;26.90;;
5876;SDS011;2964;42.144;24.730;2023-12-07T08:42:57;35.57;;;27.73;;
5876;SDS011;2964;42.144;24.730;2023-12-07T08:45:25;31.73;;;26.33;;
5876;SDS011;2964;42.144;24.730;2023-12-07T08:47:51;35.07;;;25.70;;
5876;SDS011;2964;42.144;24.730;2023-12-07T08:50:18;36.07;;;27.60;;
5876;SDS011;2964;42.144;24.730;2023-12-07T08:52:45;38.07;;;29.13;;
5876;SDS011;2964;42.144;24.730;2023-12-07T08:55:11;46.00;;;32.00;;
5876;SDS011;2964;42.144;24.730;2023-12-07T08:57:40;43.37;;;31.07;;
5876;SDS011;2964;42.144;24.730;2023-12-07T09:00:07;41.63;;;26.93;;
5876;SDS011;2964;42.144;24.730;2023-12-07T09:02:37;38.63;;;26.20;;
5876;SDS011;2964;42.144;24.730;2023-12-07T09:05:04;34.03;;;26.63;;
5876;SDS011;2964;42.144;24.730;2023-12-07T09:07:31;33.17;;;25.40;;
5876;SDS011;2964;42.144;24.730;2023-12-07T09:09:57;35.07;;;26.20;;
5876;SDS011;2964;42.144;24.730;2023-12-07T09:12:24;40.57;;;26.37;;
5876;SDS011;2964;42.144;24.730;2023-12-07T09:14:51;30.10;;;23.73;;
5876;SDS011;2964;42.144;24.730;2023-12-07T09:17:18;33.33;;;23.00;;
5876;SDS011;2964;42.144;24.730;2023-12-07T09:19:48;27.20;;;21.90;;
5876;SDS011;2964;42.144;24.730;2023-12-07T09:22:15;32.97;;;22.80;;
5876;SDS011;2964;42.144;24.730;2023-12-07T09:24:41;30.40;;;22.10;;
5876;SDS011;2964;42.144;24.730;2023-12-07T09:27:08;29.70;;;22.20;;
5876;SDS011;2964;42.144;24.730;2023-12-07T09:29:35;26.00;;;21.07;;
5876;SDS011;2964;42.144;24.730;2023-12-07T09:32:02;28.10;;;19.77;;
5876;SDS011;2964;42.144;24.730;2023-12-07T09:34:29;26.20;;;18.73;;
5876;SDS011;2964;42.144;24.730;2023-12-07T09:37:06;21.43;;;18.53;;
5876;SDS011;2964;42.144;24.730;2023-12-07T09:39:33;25.23;;;17.27;;
5876;SDS011;2964;42.144;24.730;2023-12-07T09:42:00;19.37;;;17.33;;
5876;SDS011;2964;42.144;24.730;2023-12-07T09:44:27;21.97;;;17.07;;
5876;SDS011;2964;42.144;24.730;2023-12-07T09:46:54;29.03;;;22.40;;
5876;SDS011;2964;42.144;24.730;2023-12-07T09:49:21;22.43;;;18.33;;
5876;SDS011;2964;42.144;24.730;2023-12-07T09:51:48;20.73;;;17.60;;
5876;SDS011;2964;42.144;24.730;2023-12-07T09:54:18;22.67;;;18.77;;
5876;SDS011;2964;42.144;24.730;2023-12-07T09:56:46;19.27;;;16.87;;
5876;SDS011;2964;42.144;24.730;2023-12-07T09:59:13;20.87;;;15.93;;
5876;SDS011;2964;42.144;24.730;2023-12-07T10:01:41;19.80;;;16.70;;
5876;SDS011;2964;42.144;24.730;2023-12-07T10:04:14;18.70;;;14.57;;
5876;SDS011;2964;42.144;24.730;2023-12-07T10:06:42;17.13;;;15.33;;
5876;SDS011;2964;42.144;24.730;2023-12-07T10:09:12;18.27;;;15.47;;
5876;SDS011;2964;42.144;24.730;2023-12-07T10:11:41;22.70;;;16.93;;
5876;SDS011;2964;42.144;24.730;2023-12-07T10:14:08;15.43;;;13.93;;
5876;SDS011;2964;42.144;24.730;2023-12-07T10:16:35;18.03;;;14.50;;
5876;SDS011;2964;42.144;24.730;2023-12-07T10:19:12;16.70;;;14.53;;
5876;SDS011;2964;42.144;24.730;2023-12-07T10:21:42;19.57;;;15.50;;
5876;SDS011;2964;42.144;24.730;2023-12-07T10:24:09;16.53;;;13.60;;
5876;SDS011;2964;42.144;24.730;2023-12-07T10:26:37;16.50;;;13.77;;
5876;SDS011;2964;42.144;24.730;2023-12-07T10:29:06;16.20;;;14.27;;
5876;SDS011;2964;42.144;24.730;2023-12-07T10:31:33;14.17;;;12.70;;
5876;SDS011;2964;42.144;24.730;2023-12-07T10:34:00;17.83;;;14.50;;
5876;SDS011;2964;42.144;24.730;2023-12-07T10:36:27;14.43;;;12.93;;
5876;SDS011;2964;42.144;24.730;2023-12-07T10:38:53;14.73;;;13.20;;
5876;SDS011;2964;42.144;24.730;2023-12-07T10:41:21;16.17;;;13.63;;
5876;SDS011;2964;42.144;24.730;2023-12-07T10:43:51;16.37;;;12.97;;
5876;SDS011;2964;42.144;24.730;2023-12-07T10:46:20;16.07;;;13.47;;
5876;SDS011;2964;42.144;24.730;2023-12-07T10:48:48;18.53;;;14.23;;
5876;SDS011;2964;42.144;24.730;2023-12-07T10:51:20;15.47;;;13.17;;
5876;SDS011;2964;42.144;24.730;2023-12-07T10:53:55;16.67;;;14.53;;
5876;SDS011;2964;42.144;24.730;2023-12-07T10:56:24;15.50;;;13.93;;
5876;SDS011;2964;42.144;24.730;2023-12-07T10:58:55;16.27;;;14.37;;
5876;SDS011;2964;42.144;24.730;2023-12-07T11:01:25;19.20;;;16.70;;
5876;SDS011;2964;42.144;24.730;2023-12-07T11:03:52;24.47;;;16.90;;
5876;SDS011;2964;42.144;24.730;2023-12-07T11:06:20;21.50;;;15.17;;
5876;SDS011;2964;42.144;24.730;2023-12-07T11:08:47;16.50;;;13.03;;
5876;SDS011;2964;42.144;24.730;2023-12-07T11:11:20;18.23;;;13.57;;
5876;SDS011;2964;42.144;24.730;2023-12-07T11:13:52;14.77;;;13.23;;
5876;SDS011;2964;42.144;24.730;2023-12-07T11:16:32;15.17;;;13.67;;
5876;SDS011;2964;42.144;24.730;2023-12-07T11:19:00;16.50;;;14.00;;
5876;SDS011;2964;42.144;24.730;2023-12-07T11:21:27;17.10;;;13.50;;
5876;SDS011;2964;42.144;24.730;2023-12-07T11:23:54;13.93;;;12.53;;
5876;SDS011;2964;42.144;24.730;2023-12-07T11:26:22;14.60;;;12.23;;
5876;SDS011;2964;42.144;24.730;2023-12-07T11:28:49;14.07;;;12.63;;
5876;SDS011;2964;42.144;24.730;2023-12-07T11:31:16;14.77;;;11.97;;
5876;SDS011;2964;42.144;24.730;2023-12-07T11:33:44;14.33;;;12.63;;
5876;SDS011;2964;42.144;24.730;2023-12-07T11:36:13;15.87;;;12.57;;
5876;SDS011;2964;42.144;24.730;2023-12-07T11:41:43;12.00;;;10.80;;
5876;SDS011;2964;42.144;24.730;2023-12-07T11:44:11;12.33;;;11.20;;
5876;SDS011;2964;42.144;24.730;2023-12-07T11:46:38;14.00;;;11.80;;
5876;SDS011;2964;42.144;24.730;2023-12-07T11:49:06;13.30;;;11.87;;
5876;SDS011;2964;42.144;24.730;2023-12-07T11:51:36;15.80;;;12.33;;
5876;SDS011;2964;42.144;24.730;2023-12-07T11:54:04;11.23;;;10.20;;
5876;SDS011;2964;42.144;24.730;2023-12-07T11:56:33;12.33;;;11.03;;
5876;SDS011;2964;42.144;24.730;2023-12-07T11:58:59;15.23;;;11.67;;
5876;SDS011;2964;42.144;24.730;2023-12-07T12:01:26;11.57;;;10.57;;
5876;SDS011;2964;42.144;24.730;2023-12-07T12:03:55;12.20;;;10.97;;
5876;SDS011;2964;42.144;24.730;2023-12-07T12:06:24;13.20;;;11.90;;
5876;SDS011;2964;42.144;24.730;2023-12-07T12:08:51;10.57;;;9.67;;
5876;SDS011;2964;42.144;24.730;2023-12-07T12:11:18;12.77;;;11.60;;
5876;SDS011;2964;42.144;24.730;2023-12-07T12:13:45;12.60;;;11.50;;
5876;SDS011;2964;42.144;24.730;2023-12-07T12:16:14;14.00;;;11.60;;
5876;SDS011;2964;42.144;24.730;2023-12-07T12:18:41;13.33;;;11.53;;
5876;SDS011;2964;42.144;24.730;2023-12-07T12:21:08;13.40;;;12.00;;
5876;SDS011;2964;42.144;24.730;2023-12-07T12:23:36;12.97;;;11.70;;
5876;SDS011;2964;42.144;24.730;2023-12-07T12:26:05;13.63;;;12.23;;
5876;SDS011;2964;42.144;24.730;2023-12-07T12:28:33;16.77;;;14.57;;
5876;SDS011;2964;42.144;24.730;2023-12-07T12:31:03;16.30;;;13.63;;
5876;SDS011;2964;42.144;24.730;2023-12-07T12:33:30;17.67;;;12.30;;
5876;SDS011;2964;42.144;24.730;2023-12-07T12:36:04;14.47;;;12.57;;
5876;SDS011;2964;42.144;24.730;2023-12-07T12:38:36;19.07;;;13.70;;
5876;SDS011;2964;42.144;24.730;2023-12-07T12:41:04;24.53;;;13.80;;
5876;SDS011;2964;42.144;24.730;2023-12-07T12:43:31;15.27;;;13.70;;
5876;SDS011;2964;42.144;24.730;2023-12-07T12:45:59;16.93;;;12.63;;
5876;SDS011;2964;42.144;24.730;2023-12-07T12:48:25;16.80;;;12.73;;
5876;SDS011;2964;42.144;24.730;2023-12-07T12:50:51;15.83;;;13.03;;
5876;SDS011;2964;42.144;24.730;2023-12-07T12:53:18;16.37;;;11.73;;
5876;SDS011;2964;42.144;24.730;2023-12-07T12:55:48;12.37;;;11.10;;
5876;SDS011;2964;42.144;24.730;2023-12-07T12:58:15;12.77;;;10.63;;
5876;SDS011;2964;42.144;24.730;2023-12-07T13:00:42;12.17;;;11.07;;
5876;SDS011;2964;42.144;24.730;2023-12-07T13:03:09;11.23;;;10.30;;
5876;SDS011;2964;42.144;24.730;2023-12-07T13:05:38;15.07;;;11.87;;
5876;SDS011;2964;42.144;24.730;2023-12-07T13:08:04;13.30;;;11.90;;
5876;SDS011;2964;42.144;24.730;2023-12-07T13:10:31;14.37;;;12.37;;
5876;SDS011;2964;42.144;24.730;2023-12-07T13:13:02;15.80;;;11.70;;
5876;SDS011;2964;42.144;24.730;2023-12-07T13:15:29;12.77;;;11.67;;
5876;SDS011;2964;42.144;24.730;2023-12-07T13:17:56;14.70;;;12.20;;
5876;SDS011;2964;42.144;24.730;2023-12-07T13:20:23;13.83;;;12.37;;
5876;SDS011;2964;42.144;24.730;2023-12-07T13:22:49;13.47;;;12.07;;
5876;SDS011;2964;42.144;24.730;2023-12-07T13:25:16;15.00;;;11.60;;
5876;SDS011;2964;42.144;24.730;2023-12-07T13:27:43;13.93;;;12.37;;
5876;SDS011;2964;42.144;24.730;2023-12-07T13:30:11;16.90;;;13.87;;
5876;SDS011;2964;42.144;24.730;2023-12-07T13:32:38;18.10;;;14.43;;
5876;SDS011;2964;42.144;24.730;2023-12-07T13:35:05;24.43;;;15.40;;
5876;SDS011;2964;42.144;24.730;2023-12-07T13:37:32;17.83;;;15.63;;
5876;SDS011;2964;42.144;24.730;2023-12-07T13:39:59;19.00;;;15.73;;
5876;SDS011;2964;42.144;24.730;2023-12-07T13:42:29;26.03;;;18.87;;
5876;SDS011;2964;42.144;24.730;2023-12-07T13:44:57;25.83;;;19.97;;
5876;SDS011;2964;42.144;24.730;2023-12-07T13:47:26;25.93;;;19.93;;
5876;SDS011;2964;42.144;24.730;2023-12-07T13:49:56;31.40;;;25.33;;
5876;SDS011;2964;42.144;24.730;2023-12-07T13:52:23;29.73;;;21.67;;
5876;SDS011;2964;42.144;24.730;2023-12-07T13:54:50;30.37;;;21.27;;
5876;SDS011;2964;42.144;24.730;2023-12-07T13:57:17;29.90;;;20.97;;
5876;SDS011;2964;42.144;24.730;2023-12-07T13:59:44;27.87;;;21.03;;
5876;SDS011;2964;42.144;24.730;2023-12-07T14:02:11;27.37;;;20.27;;
5876;SDS011;2964;42.144;24.730;2023-12-07T14:04:39;24.93;;;18.00;;
5876;SDS011;2964;42.144;24.730;2023-12-07T14:07:07;24.90;;;20.47;;
5876;SDS011;2964;42.144;24.730;2023-12-07T14:09:34;29.07;;;20.20;;
5876;SDS011;2964;42.144;24.730;2023-12-07T14:12:01;22.27;;;17.23;;
5876;SDS011;2964;42.144;24.730;2023-12-07T14:14:28;20.67;;;17.27;;
5876;SDS011;2964;42.144;24.730;2023-12-07T14:16:55;18.97;;;14.63;;
5876;SDS011;2964;42.144;24.730;2023-12-07T14:19:22;16.60;;;14.00;;
5876;SDS011;2964;42.144;24.730;2023-12-07T14:21:51;20.33;;;13.50;;
5876;SDS011;2964;42.144;24.730;2023-12-07T14:24:17;17.57;;;13.20;;
5876;SDS011;2964;42.144;24.730;2023-12-07T14:26:44;15.57;;;12.93;;
5876;SDS011;2964;42.144;24.730;2023-12-07T14:29:11;16.30;;;13.87;;
5876;SDS011;2964;42.144;24.730;2023-12-07T14:31:40;19.60;;;13.60;;
5876;SDS011;2964;42.144;24.730;2023-12-07T14:34:07;17.07;;;13.20;;
5876;SDS011;2964;42.144;24.730;2023-12-07T14:36:33;18.30;;;14.17;;
5876;SDS011;2964;42.144;24.730;2023-12-07T14:39:01;17.40;;;13.33;;